Time;durP1;ratioP1;P1;durP2;ratioP2;P2;SDS_P1;SDS_P2;PMS_P1;PMS_P2;Temp;Humidity;BMP_temperature;BMP_pressure;BME280_temperature;BME280_humidity;BME280_pressure;Samples;Min_cycle;Max_cycle;Signal;HPM_P1;HPM_P2
2023/01/18 00:01:18;;;;;;;5.80;2.53;;;8.80;99.90;;;;;;6122899;23;20165;-74
2023/01/18 00:03:45;;;;;;;3.27;2.50;;;8.70;99.90;;;;;;6158132;23;20661;-74
2023/01/18 00:06:12;;;;;;;2.47;2.27;;;8.70;99.90;;;;;;6158659;23;20157;-74
2023/01/18 00:08:41;;;;;;;3.97;2.40;;;8.60;99.90;;;;;;6159944;23;20554;-74
2023/01/18 00:11:14;;;;;;;3.73;2.40;;;8.60;99.90;;;;;;6123085;23;20250;-74
2023/01/18 00:13:41;;;;;;;2.53;2.30;;;8.70;99.90;;;;;;6098183;23;20642;-74
2023/01/18 00:16:18;;;;;;;2.50;2.20;;;8.70;99.90;;;;;;6098127;23;20184;-74
2023/01/18 00:18:55;;;;;;;4.33;2.13;;;8.60;99.90;;;;;;6122985;23;20180;-74
2023/01/18 00:21:23;;;;;;;5.47;2.40;;;8.60;99.90;;;;;;6122986;23;20165;-74
2023/01/18 00:23:51;;;;;;;2.60;2.40;;;8.60;99.90;;;;;;6123340;23;20251;-74
2023/01/18 00:26:18;;;;;;;4.30;2.40;;;8.50;99.90;;;;;;6157814;23;20161;-74
2023/01/18 00:28:44;;;;;;;4.23;2.10;;;8.50;99.90;;;;;;6159333;23;20180;-74
2023/01/18 00:31:19;;;;;;;2.83;2.53;;;8.50;99.90;;;;;;6159253;23;20206;-74
2023/01/18 00:33:49;;;;;;;4.30;2.40;;;8.50;99.90;;;;;;6158487;23;20475;-74
2023/01/18 00:36:17;;;;;;;2.67;2.40;;;8.50;99.90;;;;;;6121751;23;20165;-74
2023/01/18 00:38:51;;;;;;;3.00;2.57;;;8.50;99.90;;;;;;6122406;23;20172;-74
2023/01/18 00:41:21;;;;;;;3.63;2.70;;;8.50;99.90;;;;;;6122660;23;20226;-74
2023/01/18 00:43:48;;;;;;;2.90;2.60;;;8.50;99.90;;;;;;6122353;23;20476;-74
2023/01/18 00:46:21;;;;;;;3.07;2.67;;;8.50;99.90;;;;;;6121604;23;20163;-74
2023/01/18 00:48:49;;;;;;;4.10;2.70;;;8.60;99.90;;;;;;6121744;23;20189;-74
2023/01/18 00:51:24;;;;;;;4.47;2.53;;;8.60;99.90;;;;;;6157841;23;20393;-74
2023/01/18 00:53:50;;;;;;;3.30;2.50;;;8.60;99.90;;;;;;6098324;23;20160;-74
2023/01/18 00:56:23;;;;;;;5.13;2.60;;;8.60;99.90;;;;;;6097193;23;20161;-74
2023/01/18 00:58:50;;;;;;;5.47;2.90;;;8.60;99.90;;;;;;6158871;23;20727;-74
2023/01/18 01:01:17;;;;;;;2.50;2.30;;;8.60;99.90;;;;;;6098276;23;20172;-74
2023/01/18 01:06:43;;;;;;;2.93;2.60;;;8.60;99.90;;;;;;6122229;23;20165;-74
2023/01/18 01:09:14;;;;;;;3.90;2.50;;;8.60;99.90;;;;;;6159051;23;20216;-74
2023/01/18 01:12:31;;;;;;;5.47;2.57;;;8.70;99.90;;;;;;6122608;23;20519;-74
2023/01/18 01:28:10;;;;;;;4.70;2.73;;;8.60;99.90;;;;;;6090616;23;20161;-74
2023/01/18 01:30:36;;;;;;;3.73;2.40;;;8.60;99.90;;;;;;6091231;23;20204;-74
2023/01/18 01:33:03;;;;;;;2.80;2.50;;;8.60;99.90;;;;;;6066372;23;20161;-74
2023/01/18 01:35:30;;;;;;;4.63;2.40;;;8.60;99.90;;;;;;6124849;23;20157;-74
2023/01/18 01:37:58;;;;;;;5.80;2.70;;;8.60;99.90;;;;;;6090872;23;20197;-74
2023/01/18 01:40:25;;;;;;;3.30;2.67;;;8.50;99.90;;;;;;6066852;23;20173;-74
2023/01/18 01:42:52;;;;;;;4.80;2.97;;;8.60;99.90;;;;;;6066155;23;20165;-74
2023/01/18 01:45:24;;;;;;;3.70;2.43;;;8.60;99.90;;;;;;6124232;23;20161;-75
2023/01/18 01:47:56;;;;;;;2.73;2.47;;;8.60;99.90;;;;;;6090442;23;20635;-74
2023/01/18 01:50:38;;;;;;;2.90;2.60;;;8.50;99.90;;;;;;6090881;23;20186;-74
2023/01/18 01:53:05;;;;;;;4.77;2.50;;;8.50;99.90;;;;;;6156944;23;20157;-74
2023/01/18 01:55:36;;;;;;;2.80;2.50;;;8.50;99.90;;;;;;6121430;23;20628;-74
2023/01/18 01:58:18;;;;;;;3.50;2.93;;;8.50;99.90;;;;;;6121611;23;20502;-74
2023/01/18 02:00:47;;;;;;;3.20;2.90;;;8.50;99.90;;;;;;6158248;23;20167;-74
2023/01/18 02:03:17;;;;;;;4.63;3.03;;;8.50;99.90;;;;;;6120721;23;20169;-74
2023/01/18 02:05:49;;;;;;;6.27;2.40;;;8.50;99.90;;;;;;6120571;23;20161;-74
2023/01/18 02:08:27;;;;;;;4.40;2.60;;;8.40;99.90;;;;;;6157793;23;20188;-74
2023/01/18 02:10:53;;;;;;;3.40;2.97;;;8.40;99.90;;;;;;6121636;23;20164;-73
2023/01/18 02:13:24;;;;;;;2.53;2.33;;;8.40;99.90;;;;;;6121606;23;20161;-73
2023/01/18 02:16:14;;;;;;;3.17;2.73;;;8.40;99.90;;;;;;6120612;23;20161;-72
2023/01/18 02:18:55;;;;;;;3.27;2.40;;;8.40;99.90;;;;;;6121222;23;20623;-73
2023/01/18 02:21:45;;;;;;;3.00;2.63;;;8.40;99.90;;;;;;6121767;23;20239;-72
2023/01/18 02:24:54;;;;;;;3.23;2.83;;;8.40;99.90;;;;;;6121169;23;20167;-72
2023/01/18 02:27:58;;;;;;;4.50;2.60;;;8.40;99.90;;;;;;6121972;23;20591;-73
2023/01/18 02:30:41;;;;;;;4.83;2.90;;;8.40;99.90;;;;;;6158060;23;20180;-72
2023/01/18 02:33:47;;;;;;;3.37;2.67;;;8.40;99.90;;;;;;6121182;23;20160;-72
2023/01/18 02:36:29;;;;;;;3.00;2.70;;;8.40;99.90;;;;;;6116506;23;20167;-73
2023/01/18 02:39:05;;;;;;;6.07;2.83;;;8.50;99.90;;;;;;6121795;23;20988;-72
2023/01/18 02:47:31;;;;;;;3.30;2.97;;;8.50;99.90;;;;;;6156965;23;20153;-73
2023/01/18 02:49:57;;;;;;;4.40;2.83;;;8.50;99.90;;;;;;6121593;23;20181;-72
2023/01/18 02:52:53;;;;;;;2.60;2.40;;;8.50;99.90;;;;;;6121393;23;20167;-72
2023/01/18 02:55:33;;;;;;;3.50;3.20;;;8.60;99.90;;;;;;6138031;23;20248;-72
2023/01/18 02:58:25;;;;;;;3.10;2.80;;;8.60;99.90;;;;;;6157176;23;20157;-73
2023/01/18 03:01:29;;;;;;;4.17;3.57;;;8.70;99.90;;;;;;6096466;23;20556;-73
2023/01/18 03:04:08;;;;;;;4.10;3.00;;;8.70;99.90;;;;;;6139275;23;20251;-72
2023/01/18 03:06:34;;;;;;;4.40;2.90;;;8.70;99.90;;;;;;6121326;23;20527;-73
2023/01/18 03:09:02;;;;;;;4.53;2.93;;;8.80;99.90;;;;;;6121363;23;20637;-72
2023/01/18 03:11:42;;;;;;;5.23;2.90;;;8.80;99.90;;;;;;6157151;23;20157;-73
2023/01/18 03:14:50;;;;;;;4.87;3.03;;;8.90;99.90;;;;;;6156098;23;20244;-72
2023/01/18 03:17:58;;;;;;;3.40;3.10;;;8.90;99.90;;;;;;6156523;23;20207;-73
2023/01/18 03:20:33;;;;;;;4.03;3.60;;;9.00;99.90;;;;;;6084365;23;20234;-73
2023/01/18 03:23:41;;;;;;;3.90;3.00;;;8.90;99.90;;;;;;6156922;23;20211;-72
2023/01/18 03:26:14;;;;;;;4.13;2.97;;;9.00;99.90;;;;;;6156854;23;20161;-72
2023/01/18 03:34:43;;;;;;;4.40;3.13;;;9.10;99.90;;;;;;6120588;23;20165;-72
2023/01/18 03:37:20;;;;;;;3.83;3.10;;;9.10;99.90;;;;;;6121374;23;20207;-73
2023/01/18 03:39:55;;;;;;;3.10;2.80;;;9.10;99.90;;;;;;6097044;23;20195;-73
2023/01/18 03:42:29;;;;;;;3.73;3.20;;;9.10;99.90;;;;;;6157279;23;20156;-73
2023/01/18 03:45:09;;;;;;;5.43;3.67;;;9.10;99.90;;;;;;6156913;23;20969;-72
2023/01/18 03:47:39;;;;;;;3.17;2.80;;;9.10;99.90;;;;;;6120907;23;20877;-72
2023/01/18 03:50:07;;;;;;;4.20;3.20;;;9.10;99.90;;;;;;6120994;23;20199;-72
2023/01/18 03:52:49;;;;;;;3.47;3.00;;;9.10;99.90;;;;;;6157402;23;20248;-72
2023/01/18 03:55:51;;;;;;;3.53;2.97;;;9.10;99.90;;;;;;6120585;23;20165;-72
2023/01/18 03:58:29;;;;;;;4.03;3.20;;;9.20;99.90;;;;;;6156879;23;20164;-72
2023/01/18 04:00:56;;;;;;;3.70;3.20;;;9.20;99.90;;;;;;6157316;23;20167;-73
2023/01/18 04:03:22;;;;;;;4.00;3.37;;;9.20;99.90;;;;;;6120459;23;20711;-72
2023/01/18 04:05:49;;;;;;;3.70;2.57;;;9.20;99.90;;;;;;6120459;23;20248;-72
2023/01/18 04:08:15;;;;;;;4.00;3.30;;;9.10;99.90;;;;;;6157330;23;20180;-72
2023/01/18 04:10:41;;;;;;;3.53;3.17;;;9.10;99.90;;;;;;6096375;23;20471;-72
2023/01/18 04:13:08;;;;;;;4.27;3.20;;;9.10;99.90;;;;;;6120037;23;20516;-72
2023/01/18 04:15:34;;;;;;;4.67;3.03;;;9.10;99.90;;;;;;6156266;23;20165;-72
2023/01/18 04:18:01;;;;;;;3.30;2.80;;;9.10;99.90;;;;;;6156933;23;20176;-72
2023/01/18 04:20:27;;;;;;;3.43;3.13;;;9.20;99.90;;;;;;6157858;23;20207;-72
2023/01/18 04:22:55;;;;;;;2.80;2.57;;;9.20;99.90;;;;;;6096660;23;20157;-73
2023/01/18 04:25:23;;;;;;;3.20;2.90;;;9.30;99.90;;;;;;6155883;23;20169;-72
2023/01/18 04:27:49;;;;;;;3.37;3.00;;;9.30;99.90;;;;;;6156838;23;20261;-72
2023/01/18 04:30:16;;;;;;;4.37;3.80;;;9.20;99.90;;;;;;6157840;23;20627;-72
2023/01/18 04:32:45;;;;;;;5.27;3.90;;;9.20;99.90;;;;;;6122260;23;20172;-73
2023/01/18 04:35:12;;;;;;;5.53;4.17;;;9.20;99.90;;;;;;6146698;23;20603;-73
2023/01/18 04:37:38;;;;;;;4.07;3.33;;;9.30;99.90;;;;;;6098570;23;20157;-73
2023/01/18 04:40:06;;;;;;;4.90;3.57;;;9.20;99.90;;;;;;6157867;23;20876;-72
2023/01/18 04:42:33;;;;;;;3.70;3.27;;;9.20;99.90;;;;;;6097774;23;20175;-73
2023/01/18 04:44:59;;;;;;;4.17;3.43;;;9.30;99.90;;;;;;6157623;23;20161;-72
2023/01/18 04:47:29;;;;;;;5.20;3.33;;;9.30;99.90;;;;;;6157672;23;20691;-72
2023/01/18 04:49:56;;;;;;;3.80;3.10;;;9.30;99.90;;;;;;6158826;23;20189;-72
2023/01/18 04:52:24;;;;;;;3.70;3.20;;;9.30;99.90;;;;;;6122072;23;20171;-73
2023/01/18 04:54:55;;;;;;;7.23;2.97;;;9.30;99.90;;;;;;6121795;23;20507;-73
2023/01/18 04:57:21;;;;;;;4.33;2.97;;;9.30;99.90;;;;;;6122606;23;20611;-72
2023/01/18 04:59:47;;;;;;;5.03;3.17;;;9.20;99.90;;;;;;6159196;23;20183;-73
2023/01/18 05:02:14;;;;;;;3.27;2.90;;;9.20;99.90;;;;;;6121739;23;20248;-72
2023/01/18 05:04:42;;;;;;;3.93;2.83;;;9.20;99.90;;;;;;6121551;23;20156;-73
2023/01/18 05:07:09;;;;;;;5.60;3.33;;;9.30;99.90;;;;;;6122198;23;20173;-72
2023/01/18 05:09:36;;;;;;;3.57;2.87;;;9.40;99.90;;;;;;6158402;23;20185;-72
2023/01/18 05:12:02;;;;;;;3.77;3.40;;;9.40;99.90;;;;;;6158699;23;20153;-73
2023/01/18 05:14:28;;;;;;;3.37;3.07;;;9.40;99.90;;;;;;6121532;23;20161;-72
2023/01/18 05:16:54;;;;;;;3.47;3.17;;;9.40;99.90;;;;;;6097214;23;20172;-73
2023/01/18 05:19:22;;;;;;;4.30;3.00;;;9.40;99.90;;;;;;6122477;23;20277;-72
2023/01/18 05:21:49;;;;;;;3.57;2.90;;;9.40;99.90;;;;;;6122080;23;20532;-73
2023/01/18 05:24:15;;;;;;;3.40;3.00;;;9.40;99.90;;;;;;6096769;23;20243;-73
2023/01/18 05:26:41;;;;;;;3.70;2.97;;;9.50;99.90;;;;;;6158618;23;20587;-72
2023/01/18 05:29:09;;;;;;;5.80;2.97;;;9.60;99.90;;;;;;6158626;23;20185;-73
2023/01/18 05:31:37;;;;;;;3.60;2.90;;;9.70;99.90;;;;;;6158199;23;20538;-72
2023/01/18 05:34:03;;;;;;;4.63;2.83;;;9.60;99.90;;;;;;6097131;23;20157;-72
2023/01/18 05:36:30;;;;;;;4.63;3.10;;;9.60;99.90;;;;;;6158647;23;20157;-72
2023/01/18 05:38:56;;;;;;;5.10;2.80;;;9.70;99.90;;;;;;6158025;23;20299;-72
2023/01/18 05:41:23;;;;;;;3.10;2.73;;;9.60;99.90;;;;;;6122357;23;20180;-72
2023/01/18 05:43:50;;;;;;;4.47;3.07;;;9.70;99.90;;;;;;6158510;23;20208;-73
2023/01/18 05:46:16;;;;;;;3.30;3.00;;;9.70;99.90;;;;;;6121682;23;20161;-72
2023/01/18 05:48:42;;;;;;;5.30;3.00;;;9.70;99.90;;;;;;6145542;23;20235;-73
2023/01/18 05:51:12;;;;;;;3.10;2.80;;;9.70;99.90;;;;;;6158330;23;20161;-72
2023/01/18 05:53:40;;;;;;;4.40;3.10;;;9.70;99.90;;;;;;6146582;23;20161;-72
2023/01/18 05:56:08;;;;;;;2.90;2.60;;;9.70;99.90;;;;;;6121371;23;20168;-72
2023/01/18 05:58:35;;;;;;;3.10;2.77;;;9.80;99.90;;;;;;6157594;23;20149;-73
2023/01/18 06:01:01;;;;;;;3.97;3.20;;;9.80;99.90;;;;;;6121360;23;20244;-73
2023/01/18 06:03:27;;;;;;;3.20;2.90;;;9.80;99.90;;;;;;6157217;23;20164;-72
2023/01/18 06:05:57;;;;;;;3.13;2.80;;;9.80;99.90;;;;;;6121480;23;20176;-73
2023/01/18 06:08:23;;;;;;;4.20;2.83;;;9.80;99.90;;;;;;6096767;23;20593;-73
2023/01/18 06:11:01;;;;;;;3.10;2.80;;;9.80;99.90;;;;;;6121530;23;20192;-73
2023/01/18 06:13:29;;;;;;;3.37;3.00;;;9.90;99.90;;;;;;6158096;23;20196;-73
2023/01/18 06:15:59;;;;;;;5.57;3.00;;;9.90;99.90;;;;;;6145823;23;20161;-72
2023/01/18 06:18:28;;;;;;;4.80;3.43;;;9.90;99.90;;;;;;6145701;23;20749;-73
2023/01/18 06:21:02;;;;;;;4.73;3.03;;;9.90;99.90;;;;;;6122138;23;20591;-72
2023/01/18 06:23:30;;;;;;;4.10;3.10;;;10.10;99.90;;;;;;6158099;23;20236;-72
2023/01/18 06:25:57;;;;;;;3.33;3.03;;;10.20;99.90;;;;;;6096610;23;20165;-73
2023/01/18 06:28:25;;;;;;;4.40;2.97;;;10.30;99.90;;;;;;6157899;23;20165;-73
2023/01/18 06:30:53;;;;;;;3.63;3.33;;;10.40;99.90;;;;;;6158037;23;20165;-72
2023/01/18 06:33:22;;;;;;;6.00;3.10;;;10.50;99.90;;;;;;6157448;23;20164;-73
2023/01/18 06:35:49;;;;;;;3.40;3.10;;;10.60;99.90;;;;;;6145805;23;20169;-73
2023/01/18 06:38:16;;;;;;;3.10;2.80;;;10.80;99.90;;;;;;6158106;23;20164;-73
2023/01/18 06:40:42;;;;;;;3.40;3.10;;;10.90;99.90;;;;;;6121616;23;20188;-72
2023/01/18 06:43:12;;;;;;;4.20;3.20;;;11.00;99.90;;;;;;6157765;23;20934;-72
2023/01/18 06:45:40;;;;;;;3.60;3.30;;;11.00;99.90;;;;;;6156955;23;20161;-72
2023/01/18 06:48:06;;;;;;;3.20;2.90;;;11.20;99.90;;;;;;6119709;23;20375;-73
2023/01/18 06:50:33;;;;;;;3.00;2.70;;;11.20;99.90;;;;;;6157522;23;20284;-72
2023/01/18 06:53:00;;;;;;;3.27;2.90;;;11.40;99.90;;;;;;6120567;23;20228;-72
2023/01/18 06:55:26;;;;;;;2.97;2.63;;;11.30;99.90;;;;;;6096224;23;20192;-73
2023/01/18 06:57:57;;;;;;;3.73;2.73;;;11.40;99.90;;;;;;6121381;23;20263;-72
2023/01/18 07:00:26;;;;;;;4.70;2.70;;;11.40;99.90;;;;;;6121625;23;20173;-72
2023/01/18 07:02:55;;;;;;;3.87;2.90;;;11.30;99.90;;;;;;6144984;23;20255;-73
2023/01/18 07:05:21;;;;;;;2.97;2.67;;;11.30;99.90;;;;;;6121070;23;20168;-72
2023/01/18 07:07:48;;;;;;;5.67;2.93;;;11.30;99.90;;;;;;6157785;23;20160;-73
2023/01/18 07:10:14;;;;;;;2.93;2.40;;;11.40;99.90;;;;;;6157763;23;20268;-73
2023/01/18 07:12:45;;;;;;;3.97;2.93;;;11.40;99.90;;;;;;6121076;23;20153;-72
2023/01/18 07:15:13;;;;;;;5.87;2.80;;;11.40;99.90;;;;;;6156676;23;20271;-73
2023/01/18 07:17:39;;;;;;;3.93;3.53;;;11.30;99.90;;;;;;6156893;23;20173;-73
2023/01/18 07:20:09;;;;;;;4.40;2.43;;;11.50;99.90;;;;;;6157536;23;20260;-73
2023/01/18 07:22:35;;;;;;;3.60;2.63;;;11.50;99.90;;;;;;6121213;23;20161;-73
2023/01/18 07:25:01;;;;;;;4.40;2.60;;;11.50;99.90;;;;;;6156407;23;20165;-72
2023/01/18 07:27:30;;;;;;;4.53;2.80;;;11.50;99.90;;;;;;6120983;23;20160;-73
2023/01/18 07:29:56;;;;;;;3.10;2.77;;;11.40;99.90;;;;;;6157992;23;20184;-73
2023/01/18 07:32:23;;;;;;;4.83;2.87;;;11.50;99.90;;;;;;6156379;23;20670;-73
2023/01/18 07:34:51;;;;;;;4.30;2.60;;;11.50;99.90;;;;;;6156002;23;20161;-73
2023/01/18 07:37:17;;;;;;;3.03;2.80;;;11.60;99.90;;;;;;6157184;23;20292;-73
2023/01/18 07:39:46;;;;;;;3.90;2.73;;;11.70;99.90;;;;;;6120923;23;20215;-73
2023/01/18 07:42:13;;;;;;;3.83;2.80;;;11.80;99.90;;;;;;6157309;23;20224;-72
2023/01/18 07:44:42;;;;;;;4.40;2.70;;;11.80;99.90;;;;;;6120922;23;20673;-72
2023/01/18 07:47:10;;;;;;;2.90;2.40;;;11.80;99.90;;;;;;6121216;23;20623;-72
2023/01/18 07:49:42;;;;;;;3.53;2.70;;;12.00;99.90;;;;;;6121110;23;20200;-73
2023/01/18 07:52:10;;;;;;;2.93;2.60;;;12.00;99.90;;;;;;6157416;23;20536;-73
2023/01/18 07:54:40;;;;;;;6.77;3.00;;;12.00;99.90;;;;;;6156405;23;20236;-73
2023/01/18 07:57:09;;;;;;;3.30;2.60;;;12.00;99.90;;;;;;6120823;23;20638;-73
2023/01/18 07:59:35;;;;;;;2.90;2.60;;;12.00;99.90;;;;;;6157535;23;20223;-73
2023/01/18 08:02:02;;;;;;;3.10;2.63;;;12.10;99.90;;;;;;6155955;23;20164;-73
2023/01/18 08:04:29;;;;;;;3.97;2.60;;;12.20;99.90;;;;;;6156605;23;20165;-73
2023/01/18 08:07:00;;;;;;;5.07;2.57;;;12.20;99.90;;;;;;6122330;23;20256;-73
2023/01/18 08:09:32;;;;;;;4.47;3.17;;;12.30;99.90;;;;;;6159492;23;20604;-73
2023/01/18 08:12:03;;;;;;;2.77;2.47;;;12.20;99.90;;;;;;6159067;23;20168;-73
2023/01/18 08:14:32;;;;;;;3.23;2.50;;;12.30;99.90;;;;;;6122407;23;20707;-73
2023/01/18 08:16:58;;;;;;;2.70;2.43;;;12.30;99.90;;;;;;6158799;23;20168;-73
2023/01/18 08:19:24;;;;;;;6.70;2.30;;;12.40;99.90;;;;;;6122201;23;20165;-73
2023/01/18 08:21:50;;;;;;;2.60;2.27;;;12.60;99.90;;;;;;6158972;23;20172;-72
2023/01/18 08:24:18;;;;;;;5.97;2.63;;;12.70;99.90;;;;;;6158338;23;20188;-73
2023/01/18 08:26:44;;;;;;;3.23;2.33;;;12.70;99.90;;;;;;6098642;23;20548;-73
2023/01/18 08:29:11;;;;;;;3.67;2.50;;;12.80;99.90;;;;;;6122883;23;20184;-73
2023/01/18 08:31:37;;;;;;;3.63;2.50;;;12.70;99.90;;;;;;6158492;23;20461;-73
2023/01/18 08:34:03;;;;;;;3.13;2.43;;;12.80;99.90;;;;;;6158000;23;20654;-73
2023/01/18 08:36:31;;;;;;;4.10;2.50;;;12.70;99.90;;;;;;6123028;23;20176;-73
2023/01/18 08:38:57;;;;;;;4.43;2.10;;;12.70;99.90;;;;;;6123190;23;20161;-73
2023/01/18 08:41:29;;;;;;;3.10;2.10;;;12.70;99.90;;;;;;6145738;23;20173;-73
2023/01/18 08:44:05;;;;;;;4.23;2.10;;;12.60;99.90;;;;;;6123029;23;20223;-73
2023/01/18 08:46:31;;;;;;;3.43;2.20;;;12.60;99.90;;;;;;6158308;23;20160;-73
2023/01/18 08:49:02;;;;;;;3.10;2.10;;;12.60;99.90;;;;;;6146580;23;20639;-73
2023/01/18 08:51:29;;;;;;;2.17;1.97;;;12.50;99.90;;;;;;6158013;23;20196;-73
2023/01/18 08:53:57;;;;;;;2.53;2.00;;;12.50;99.90;;;;;;6158426;23;20620;-73
2023/01/18 08:56:25;;;;;;;3.07;2.40;;;12.50;99.90;;;;;;6121900;23;20551;-73
2023/01/18 08:58:51;;;;;;;2.30;2.10;;;12.50;99.90;;;;;;6122726;23;20257;-73
2023/01/18 09:01:18;;;;;;;3.10;1.83;;;12.50;99.90;;;;;;6146008;23;20442;-73
2023/01/18 09:03:46;;;;;;;3.72;2.03;;;12.50;99.90;;;;;;6119308;23;20375;-73
2023/01/18 09:06:13;;;;;;;4.60;2.47;;;12.50;99.90;;;;;;6121488;23;20168;-73
2023/01/18 09:08:39;;;;;;;3.70;2.20;;;12.60;99.90;;;;;;6146741;23;20172;-73
2023/01/18 09:11:09;;;;;;;3.30;1.97;;;12.60;99.90;;;;;;6122464;23;20204;-73
2023/01/18 09:13:37;;;;;;;2.33;2.10;;;12.70;99.90;;;;;;6122565;23;20157;-73
2023/01/18 09:16:06;;;;;;;5.27;2.20;;;12.70;99.90;;;;;;6157885;23;20181;-73
2023/01/18 09:18:33;;;;;;;3.77;1.90;;;12.80;99.90;;;;;;6121629;23;20176;-73
2023/01/18 09:21:12;;;;;;;2.60;2.20;;;12.90;99.90;;;;;;6158406;23;20614;-73
2023/01/18 09:23:39;;;;;;;3.30;1.90;;;13.00;99.90;;;;;;6158852;23;20159;-73
2023/01/18 09:26:15;;;;;;;2.10;1.90;;;13.00;99.90;;;;;;6121742;23;20799;-73
2023/01/18 09:28:48;;;;;;;2.90;2.10;;;12.90;99.90;;;;;;6122314;23;20167;-73
2023/01/18 09:31:17;;;;;;;4.03;2.10;;;13.10;99.90;;;;;;6158550;23;20281;-73
2023/01/18 09:33:43;;;;;;;2.70;1.70;;;13.10;99.90;;;;;;6157826;23;20161;-73
2023/01/18 09:36:13;;;;;;;2.93;1.83;;;13.20;99.90;;;;;;6157546;23;20157;-73
2023/01/18 09:38:42;;;;;;;7.20;2.10;;;13.30;99.90;;;;;;6158397;23;20248;-73
2023/01/18 09:41:35;;;;;;;2.47;2.10;;;13.30;99.90;;;;;;6122349;23;20156;-73
2023/01/18 09:44:33;;;;;;;3.43;1.97;;;13.30;99.90;;;;;;6121316;23;20671;-73
2023/01/18 09:47:42;;;;;;;2.37;1.80;;;13.50;99.90;;;;;;6121754;23;20165;-73
2023/01/18 09:50:16;;;;;;;3.10;1.87;;;13.70;99.90;;;;;;6121864;23;20211;-73
2023/01/18 09:53:02;;;;;;;2.50;1.90;;;13.80;99.90;;;;;;6157425;23;20164;-73
2023/01/18 09:55:55;;;;;;;2.73;1.90;;;13.90;99.90;;;;;;6121137;23;20160;-73
2023/01/18 09:58:47;;;;;;;2.43;1.90;;;13.80;99.90;;;;;;6097147;23;20539;-73
2023/01/18 10:01:29;;;;;;;3.70;2.10;;;13.90;99.90;;;;;;6121058;23;20169;-73
2023/01/18 10:04:27;;;;;;;2.13;1.43;;;14.00;99.90;;;;;;6156882;23;20211;-73
2023/01/18 10:07:00;;;;;;;2.40;1.70;;;13.90;99.90;;;;;;6158229;23;20698;-74
2023/01/18 10:09:34;;;;;;;2.93;1.90;;;13.90;99.90;;;;;;6157447;23;20704;-73
2023/01/18 10:12:30;;;;;;;1.80;1.60;;;13.90;99.90;;;;;;6121769;23;20165;-73
2023/01/18 10:15:24;;;;;;;2.77;1.80;;;13.90;99.90;;;;;;6064512;23;20204;-73
2023/01/18 10:17:58;;;;;;;2.50;1.80;;;13.80;99.90;;;;;;6156365;23;20615;-73
2023/01/18 10:20:47;;;;;;;2.47;1.70;;;13.80;99.90;;;;;;6121255;23;20160;-74
2023/01/18 10:23:43;;;;;;;3.63;1.80;;;13.70;99.90;;;;;;6120995;23;20524;-73
2023/01/18 10:26:25;;;;;;;3.03;1.80;;;13.70;99.90;;;;;;6120951;23;20169;-73
2023/01/18 10:30:00;;;;;;;3.47;1.90;;;13.80;99.90;;;;;;6157424;23;20172;-73
2023/01/18 10:32:29;;;;;;;3.40;2.13;;;13.80;99.90;;;;;;6038098;23;20167;-73
2023/01/18 10:34:59;;;;;;;2.43;1.87;;;13.90;99.90;;;;;;6120647;23;20167;-74
2023/01/18 10:37:44;;;;;;;1.73;1.63;;;13.90;99.90;;;;;;6121627;23;20153;-73
2023/01/18 10:40:15;;;;;;;2.30;1.50;;;14.00;99.90;;;;;;6096941;23;20247;-74
2023/01/18 10:42:52;;;;;;;1.50;1.40;;;14.20;99.90;;;;;;6157644;23;20648;-74
2023/01/18 10:45:31;;;;;;;1.93;1.57;;;14.40;99.90;;;;;;6145621;23;20169;-74
2023/01/18 10:48:17;;;;;;;4.90;2.07;;;14.50;99.90;;;;;;6096660;23;20171;-73
2023/01/18 10:50:52;;;;;;;5.00;1.83;;;14.60;99.90;;;;;;6157367;23;20267;-73
2023/01/18 10:53:35;;;;;;;1.60;1.50;;;14.60;99.90;;;;;;6157808;23;20290;-74
2023/01/18 10:56:12;;;;;;;3.37;1.50;;;14.80;99.90;;;;;;6120858;23;20172;-74
2023/01/18 10:58:56;;;;;;;3.70;1.43;;;14.80;99.90;;;;;;6157438;23;20236;-74
2023/01/18 11:01:35;;;;;;;2.43;1.60;;;14.80;99.90;;;;;;6097162;23;20161;-74
2023/01/18 11:04:23;;;;;;;1.90;1.50;;;14.80;99.90;;;;;;6157408;23;20157;-74
2023/01/18 11:07:02;;;;;;;2.60;1.73;;;14.60;99.90;;;;;;6146164;23;20163;-73
2023/01/18 11:09:50;;;;;;;1.57;1.47;;;14.50;99.90;;;;;;6121291;23;20800;-74
2023/01/18 11:12:46;;;;;;;3.17;1.87;;;14.40;99.90;;;;;;6157921;23;20184;-73
2023/01/18 11:15:12;;;;;;;3.17;1.60;;;14.30;99.90;;;;;;6121112;23;20167;-74
2023/01/18 11:17:55;;;;;;;3.63;1.97;;;14.30;99.90;;;;;;6157174;23;20619;-74
2023/01/18 11:20:49;;;;;;;2.43;1.73;;;14.30;99.90;;;;;;6097325;23;20167;-74
2023/01/18 11:23:31;;;;;;;2.50;1.90;;;14.50;99.90;;;;;;6121097;23;20168;-74
2023/01/18 11:26:22;;;;;;;1.83;1.63;;;14.90;99.90;;;;;;6120398;23;20157;-74
2023/01/18 11:29:01;;;;;;;1.77;1.50;;;15.10;99.90;;;;;;6121486;23;20613;-74
2023/01/18 11:31:44;;;;;;;2.50;1.60;;;15.30;99.90;;;;;;6145684;23;20156;-74
2023/01/18 11:34:27;;;;;;;2.23;1.60;;;15.40;99.90;;;;;;6120732;23;20168;-74
2023/01/18 11:36:55;;;;;;;1.73;1.50;;;15.40;99.90;;;;;;6157075;23;20621;-74
2023/01/18 11:39:35;;;;;;;2.67;1.50;;;15.40;99.90;;;;;;6158014;23;20233;-74
2023/01/18 11:42:37;;;;;;;5.90;1.83;;;15.40;99.90;;;;;;6098558;23;20164;-73
2023/01/18 11:45:44;;;;;;;1.80;1.57;;;15.50;99.90;;;;;;6086002;23;20610;-74
2023/01/18 11:48:41;;;;;;;1.93;1.47;;;15.50;99.90;;;;;;6116829;23;20169;-74
2023/01/18 11:51:32;;;;;;;2.63;1.43;;;15.60;99.90;;;;;;6159100;23;20165;-73
2023/01/18 11:54:45;;;;;;;4.33;1.37;;;15.60;99.90;;;;;;6105644;23;20621;-74
2023/01/18 11:57:13;;;;;;;2.67;1.53;;;15.60;99.90;;;;;;6123401;23;20190;-74
2023/01/18 11:59:48;;;;;;;3.77;1.47;;;15.60;99.90;;;;;;6123273;23;20207;-74
2023/01/18 12:02:54;;;;;;;2.37;1.57;;;15.70;99.90;;;;;;6158299;23;20157;-74
2023/01/18 12:05:51;;;;;;;3.07;1.93;;;15.70;99.90;;;;;;6122247;23;20487;-74
2023/01/18 12:08:50;;;;;;;1.43;1.30;;;15.70;99.90;;;;;;6098620;23;20183;-74
2023/01/18 12:12:18;;;;;;;3.97;1.63;;;15.80;99.90;;;;;;6122640;23;20169;-74
2023/01/18 12:15:14;;;;;;;3.00;1.60;;;15.80;99.90;;;;;;6028734;23;20857;-74
2023/01/18 12:18:21;;;;;;;1.80;1.43;;;15.90;99.90;;;;;;6121760;23;20172;-74
2023/01/18 12:21:11;;;;;;;2.60;1.40;;;15.90;99.90;;;;;;6158746;23;20160;-74
2023/01/18 12:24:14;;;;;;;2.17;1.60;;;15.80;99.90;;;;;;6122954;23;20168;-74
2023/01/18 12:26:56;;;;;;;3.93;1.90;;;15.70;99.90;;;;;;6122520;23;20618;-74
2023/01/18 12:30:29;;;;;;;2.67;1.60;;;15.70;99.90;;;;;;6158383;23;20211;-74
2023/01/18 12:33:48;;;;;;;1.67;1.57;;;15.80;99.90;;;;;;6102839;23;20179;-74
2023/01/18 12:36:44;;;;;;;3.00;1.60;;;15.70;99.90;;;;;;6122368;23;20163;-74
2023/01/18 12:39:41;;;;;;;3.63;1.57;;;15.80;99.90;;;;;;6113289;23;20161;-74
2023/01/18 12:42:52;;;;;;;2.30;1.40;;;15.70;99.90;;;;;;6122719;23;20471;-74
2023/01/18 12:46:09;;;;;;;2.17;1.60;;;15.70;99.90;;;;;;6121607;23;20164;-74
2023/01/18 12:49:10;;;;;;;3.03;1.73;;;15.70;99.90;;;;;;6118884;23;20172;-73
2023/01/18 12:51:40;;;;;;;1.90;1.60;;;15.60;99.90;;;;;;6121744;23;20215;-73
2023/01/18 12:54:38;;;;;;;3.03;1.97;;;15.60;99.90;;;;;;6157787;23;20149;-73
2023/01/18 12:57:09;;;;;;;4.50;1.90;;;15.60;99.90;;;;;;6122148;23;20194;-74
2023/01/18 12:59:44;;;;;;;1.53;1.40;;;15.70;99.90;;;;;;6097750;23;20539;-73
2023/01/18 13:02:43;;;;;;;2.40;1.80;;;15.60;99.90;;;;;;6120962;23;20515;-73
2023/01/18 13:05:34;;;;;;;3.30;1.53;;;15.60;99.90;;;;;;6157469;23;20165;-74
2023/01/18 13:08:13;;;;;;;2.57;1.60;;;15.60;99.90;;;;;;6158416;23;20200;-74
2023/01/18 13:10:41;;;;;;;2.50;1.60;;;15.50;99.90;;;;;;6122473;23;20681;-73
2023/01/18 13:13:22;;;;;;;2.00;1.60;;;15.50;99.90;;;;;;6122330;23;20719;-73
2023/01/18 13:16:01;;;;;;;1.63;1.40;;;15.50;99.90;;;;;;6097065;23;20199;-74
2023/01/18 13:18:41;;;;;;;2.17;1.60;;;15.40;99.90;;;;;;6157774;23;20175;-74
2023/01/18 13:21:52;;;;;;;3.30;1.70;;;15.40;99.90;;;;;;6097456;23;20515;-73
2023/01/18 13:24:37;;;;;;;3.40;1.57;;;15.30;99.90;;;;;;6147043;23;20161;-73
2023/01/18 13:27:17;;;;;;;3.23;1.90;;;15.30;99.90;;;;;;6158326;23;20167;-74
2023/01/18 13:29:49;;;;;;;3.63;1.37;;;15.30;99.90;;;;;;6122227;23;20188;-74
2023/01/18 13:32:29;;;;;;;3.03;1.73;;;15.20;99.90;;;;;;6121686;23;20161;-73
2023/01/18 13:35:30;;;;;;;2.83;1.83;;;15.20;99.90;;;;;;6120868;23;20188;-74
2023/01/18 13:38:11;;;;;;;2.07;1.60;;;15.10;99.90;;;;;;6110965;23;20463;-73
2023/01/18 13:40:42;;;;;;;2.10;1.50;;;15.10;99.90;;;;;;6122302;23;20626;-74
2023/01/18 13:43:36;;;;;;;2.13;1.70;;;15.00;99.90;;;;;;6158253;23;20260;-73
2023/01/18 13:46:05;;;;;;;3.87;1.50;;;15.00;99.90;;;;;;6121035;23;20157;-74
2023/01/18 13:48:56;;;;;;;2.23;1.53;;;14.90;99.90;;;;;;6121099;23;20165;-74
2023/01/18 13:51:38;;;;;;;2.60;1.40;;;14.90;99.90;;;;;;6121810;23;20173;-73
2023/01/18 13:54:14;;;;;;;2.00;1.60;;;14.80;99.90;;;;;;6121299;23;20145;-73
2023/01/18 13:57:00;;;;;;;2.27;1.43;;;14.80;99.90;;;;;;6146248;23;20168;-73
2023/01/18 13:59:39;;;;;;;3.57;1.53;;;14.80;99.90;;;;;;6121760;23;20157;-73
2023/01/18 14:02:30;;;;;;;4.20;1.70;;;14.70;99.90;;;;;;6156477;23;20163;-74
2023/01/18 14:05:16;;;;;;;1.87;1.70;;;14.70;99.90;;;;;;6120755;23;20161;-73